createdAt,value
2018-06-16T00:02:00.314Z,9.80
2018-06-16T00:04:34.896Z,6.43
2018-06-16T00:07:09.290Z,7.63
2018-06-16T00:09:44.184Z,10.03
2018-06-16T00:12:18.808Z,8.50
2018-06-16T00:14:53.248Z,8.40
2018-06-16T00:17:28.145Z,10.27
2018-06-16T00:20:02.612Z,7.70
2018-06-16T00:22:37.020Z,7.50
2018-06-16T00:25:11.885Z,8.20
2018-06-16T00:27:46.558Z,7.03
2018-06-16T00:30:21.077Z,6.03
2018-06-16T00:32:55.780Z,6.30
2018-06-16T00:35:30.179Z,6.60
2018-06-16T00:38:04.741Z,9.13
2018-06-16T00:40:39.202Z,7.67
2018-06-16T00:43:13.681Z,9.00
2018-06-16T00:45:48.448Z,7.60
2018-06-16T00:48:22.776Z,8.07
2018-06-16T00:50:57.148Z,8.13
2018-06-16T00:53:31.700Z,7.90
2018-06-16T00:56:06.532Z,6.80
2018-06-16T00:58:40.988Z,6.93
2018-06-16T01:01:15.287Z,6.67
2018-06-16T01:03:49.940Z,8.70
2018-06-16T01:06:24.356Z,6.37
2018-06-16T01:08:58.977Z,7.30
2018-06-16T01:11:33.408Z,7.27
2018-06-16T01:14:07.792Z,8.93
2018-06-16T01:16:42.223Z,7.70
2018-06-16T01:19:17.012Z,6.57
2018-06-16T01:21:51.484Z,5.87
2018-06-16T01:24:25.893Z,9.07
2018-06-16T01:27:00.373Z,8.33
2018-06-16T01:29:35.217Z,7.87
2018-06-16T01:32:09.739Z,6.80
2018-06-16T01:34:44.312Z,7.77
2018-06-16T01:37:19.177Z,8.90
2018-06-16T01:39:53.568Z,7.40
2018-06-16T01:42:36.977Z,8.90
2018-06-16T01:45:11.415Z,10.10
2018-06-16T01:47:46.622Z,6.83
2018-06-16T01:50:21.124Z,7.60
2018-06-16T01:52:55.464Z,9.40
2018-06-16T01:55:29.896Z,7.47
2018-06-16T01:58:04.524Z,6.93
2018-06-16T02:00:38.836Z,7.40
2018-06-16T02:03:13.547Z,9.13
2018-06-16T02:05:48.040Z,7.13
2018-06-16T02:08:22.509Z,7.33
2018-06-16T02:10:57.082Z,7.83
2018-06-16T02:13:31.636Z,7.93
2018-06-16T02:16:05.976Z,6.73
2018-06-16T02:18:40.327Z,6.40
2018-06-16T02:21:15.068Z,6.30
2018-06-16T02:23:49.556Z,8.63
2018-06-16T02:26:24.363Z,6.77
2018-06-16T02:28:59.201Z,6.50
2018-06-16T02:31:33.656Z,6.83
2018-06-16T02:34:08.060Z,7.67
2018-06-16T02:36:43.596Z,5.90
2018-06-16T02:39:18.121Z,10.37
2018-06-16T02:41:52.469Z,8.43
2018-06-16T02:44:26.944Z,6.60
2018-06-16T02:47:01.429Z,9.93
2018-06-16T02:49:35.756Z,6.77
2018-06-16T02:52:10.310Z,7.03
2018-06-16T02:54:44.757Z,8.17
2018-06-16T02:57:19.179Z,6.67
2018-06-16T02:59:53.908Z,9.20
2018-06-16T03:02:28.377Z,8.53
2018-06-16T03:05:02.741Z,7.17
2018-06-16T03:07:37.525Z,7.23
2018-06-16T03:10:12.116Z,7.60
2018-06-16T03:12:46.509Z,8.83
2018-06-16T03:15:21.118Z,8.20
2018-06-16T03:17:55.574Z,8.00
2018-06-16T03:20:29.989Z,8.93
2018-06-16T03:23:04.961Z,8.80
2018-06-16T03:25:39.353Z,8.93
2018-06-16T03:28:13.781Z,8.93
2018-06-16T03:30:48.676Z,7.27
2018-06-16T03:33:23.014Z,9.67
2018-06-16T03:35:57.479Z,12.17
2018-06-16T03:38:31.801Z,8.27
2018-06-16T03:41:06.489Z,10.97
2018-06-16T03:43:41.077Z,13.27
2018-06-16T03:46:15.718Z,12.33
2018-06-16T03:48:50.280Z,9.93
2018-06-16T03:51:24.804Z,7.67
2018-06-16T03:53:59.261Z,8.90
2018-06-16T03:56:33.700Z,9.37
2018-06-16T03:59:08.948Z,14.13
2018-06-16T04:01:43.882Z,9.83
2018-06-16T04:04:18.265Z,9.43
2018-06-16T04:06:52.940Z,8.97
2018-06-16T04:09:27.673Z,12.90
2018-06-16T04:12:02.400Z,10.53
2018-06-16T04:14:36.736Z,7.80
2018-06-16T04:17:22.716Z,7.63
2018-06-16T04:19:57.173Z,8.17
2018-06-16T04:22:31.526Z,11.03
2018-06-16T04:25:06.097Z,9.83
2018-06-16T04:27:40.614Z,11.13
2018-06-16T04:30:15.156Z,9.00
2018-06-16T04:32:49.572Z,10.17
2018-06-16T04:35:24.046Z,10.63
2018-06-16T04:37:58.393Z,9.23
2018-06-16T04:40:32.836Z,9.13
2018-06-16T04:43:07.356Z,8.97
2018-06-16T04:45:42.103Z,7.90
2018-06-16T04:48:16.719Z,8.87
2018-06-16T04:50:51.148Z,12.60
2018-06-16T04:53:25.635Z,8.33
2018-06-16T04:56:00.176Z,11.07
2018-06-16T04:58:34.568Z,10.97
2018-06-16T05:01:08.981Z,10.53
2018-06-16T05:03:43.311Z,11.30
2018-06-16T05:06:17.940Z,11.87
2018-06-16T05:08:52.502Z,9.93
2018-06-16T05:11:26.876Z,8.27
2018-06-16T05:14:01.261Z,11.20
2018-06-16T05:16:35.584Z,9.20
2018-06-16T05:19:09.908Z,13.20
2018-06-16T05:21:44.380Z,13.43
2018-06-16T05:24:18.804Z,10.07
2018-06-16T05:26:53.485Z,7.80
2018-06-16T05:29:28.033Z,10.27
2018-06-16T05:32:02.396Z,11.00
2018-06-16T05:34:36.840Z,12.13
2018-06-16T05:37:11.357Z,12.80
2018-06-16T05:39:45.704Z,8.37
2018-06-16T05:42:20.104Z,8.80
2018-06-16T05:44:54.669Z,8.57
2018-06-16T05:47:29.176Z,10.13
2018-06-16T05:50:03.532Z,13.87
2018-06-16T05:52:37.944Z,10.33
2018-06-16T05:55:12.300Z,10.00
2018-06-16T05:57:46.888Z,11.53
2018-06-16T06:00:21.452Z,9.67
2018-06-16T06:02:56.013Z,12.63
2018-06-16T06:05:30.549Z,9.07
2018-06-16T06:08:04.932Z,11.07
2018-06-16T06:10:39.582Z,10.07
2018-06-16T06:13:14.045Z,9.37
2018-06-16T06:15:48.697Z,10.20
2018-06-16T06:18:23.226Z,11.27
2018-06-16T06:20:57.791Z,8.97
2018-06-16T06:23:32.382Z,10.87
2018-06-16T06:26:07.260Z,9.00
2018-06-16T06:28:41.979Z,10.07
2018-06-16T06:31:16.556Z,8.70
2018-06-16T06:33:50.924Z,10.60
2018-06-16T06:36:25.400Z,9.97
2018-06-16T06:39:00.222Z,8.40
2018-06-16T06:41:34.578Z,11.53
2018-06-16T06:44:09.004Z,8.47
2018-06-16T06:46:43.856Z,9.20
2018-06-16T06:49:18.308Z,11.50
2018-06-16T06:51:52.760Z,8.63
2018-06-16T06:54:27.552Z,8.10
2018-06-16T06:57:01.996Z,9.40
2018-06-16T06:59:36.408Z,8.73
2018-06-16T07:02:10.980Z,8.60
2018-06-16T07:04:45.585Z,5.73
2018-06-16T07:07:20.101Z,7.47
2018-06-16T07:09:54.576Z,9.97
2018-06-16T07:12:29.364Z,5.17
2018-06-16T07:15:03.863Z,7.33
2018-06-16T07:17:38.226Z,6.70
2018-06-16T07:20:12.854Z,9.00
2018-06-16T07:22:47.327Z,6.47
2018-06-16T07:25:21.769Z,12.83
2018-06-16T07:27:56.368Z,9.73
2018-06-16T07:30:30.784Z,10.07
2018-06-16T07:33:05.916Z,11.33
2018-06-16T07:35:40.381Z,7.23
2018-06-16T07:38:14.956Z,9.17
2018-06-16T07:40:49.486Z,7.77
2018-06-16T07:43:23.888Z,8.03
2018-06-16T07:45:58.522Z,7.37
2018-06-16T07:48:33.116Z,8.40
2018-06-16T07:51:07.784Z,9.73
2018-06-16T07:53:42.260Z,10.30
2018-06-16T07:56:16.929Z,8.27
2018-06-16T07:58:51.464Z,8.53
2018-06-16T08:01:25.897Z,10.33
2018-06-16T08:04:00.482Z,7.70
2018-06-16T08:06:34.836Z,9.50
2018-06-16T08:09:10.117Z,9.10
2018-06-16T08:11:44.513Z,7.20
2018-06-16T08:14:19.037Z,8.87
2018-06-16T08:16:53.664Z,8.97
2018-06-16T08:19:28.329Z,11.97
2018-06-16T08:22:03.174Z,8.63
2018-06-16T08:24:38.235Z,8.43
2018-06-16T08:27:12.585Z,9.87
2018-06-16T08:29:47.365Z,8.87
2018-06-16T08:32:21.920Z,11.63
2018-06-16T08:34:56.448Z,6.40
2018-06-16T08:37:31.653Z,7.77
2018-06-16T08:40:06.254Z,8.33
2018-06-16T08:42:41.479Z,9.23
2018-06-16T08:45:15.988Z,14.07
2018-06-16T08:47:50.576Z,8.90
2018-06-16T08:50:25.292Z,7.07
2018-06-16T08:52:59.732Z,11.10
2018-06-16T08:55:34.506Z,11.33
2018-06-16T08:58:08.836Z,10.57
2018-06-16T09:00:43.656Z,7.87
2018-06-16T09:03:18.125Z,8.53
2018-06-16T09:05:53.584Z,13.23
2018-06-16T09:08:28.008Z,12.47
2018-06-16T09:11:02.425Z,8.07
2018-06-16T09:13:36.944Z,7.50
2018-06-16T09:16:11.729Z,8.70
2018-06-16T09:18:46.165Z,10.23
2018-06-16T09:21:20.764Z,8.03
2018-06-16T09:23:55.526Z,8.50
2018-06-16T09:26:30.065Z,9.73
2018-06-16T09:29:04.537Z,9.60
2018-06-16T09:31:38.957Z,7.53
2018-06-16T09:34:13.399Z,8.07
2018-06-16T09:36:47.977Z,7.13
2018-06-16T09:39:22.272Z,7.23
2018-06-16T09:41:56.838Z,7.27
2018-06-16T09:44:31.686Z,9.33
2018-06-16T09:47:06.121Z,6.23
2018-06-16T09:49:41.072Z,8.90
2018-06-16T09:52:15.567Z,5.47
2018-06-16T09:54:50.030Z,9.80
2018-06-16T09:57:24.604Z,8.77
2018-06-16T09:59:59.241Z,8.30
2018-06-16T10:02:33.804Z,5.60
2018-06-16T10:05:08.212Z,7.17
2018-06-16T10:07:42.841Z,6.13
2018-06-16T10:10:17.256Z,6.57
2018-06-16T10:12:51.760Z,7.27
2018-06-16T10:15:26.198Z,5.83
2018-06-16T10:18:00.956Z,5.93
2018-06-16T10:20:35.430Z,6.17
2018-06-16T10:23:09.817Z,5.73
2018-06-16T10:25:44.184Z,8.57
2018-06-16T10:28:18.620Z,5.93
2018-06-16T10:30:53.056Z,7.27
2018-06-16T10:33:27.519Z,5.60
2018-06-16T10:36:02.045Z,5.13
2018-06-16T10:38:36.632Z,6.40
2018-06-16T10:41:11.093Z,4.83
2018-06-16T10:43:45.548Z,7.77
2018-06-16T10:46:20.038Z,5.90
2018-06-16T10:48:54.628Z,5.70
2018-06-16T10:51:28.996Z,5.57
2018-06-16T10:54:03.531Z,5.50
2018-06-16T10:56:38.078Z,4.60
2018-06-16T10:59:12.479Z,7.40
2018-06-16T11:01:47.212Z,5.97
2018-06-16T11:04:21.556Z,5.67
2018-06-16T11:06:56.215Z,5.87
2018-06-16T11:09:30.733Z,7.37
2018-06-16T11:12:05.092Z,4.90
2018-06-16T11:14:39.568Z,2.80
2018-06-16T11:17:13.925Z,8.80
2018-06-16T11:19:48.400Z,4.03
2018-06-16T11:22:23.015Z,6.27
2018-06-16T11:24:57.571Z,4.10
2018-06-16T11:27:31.974Z,3.60
2018-06-16T11:30:06.557Z,5.07
2018-06-16T11:32:40.969Z,6.30
2018-06-16T11:35:15.562Z,7.63
2018-06-16T11:37:50.237Z,4.97
2018-06-16T11:40:24.902Z,5.27
2018-06-16T11:42:59.516Z,4.67
2018-06-16T11:45:34.034Z,6.47
2018-06-16T11:48:08.548Z,6.33
2018-06-16T11:50:43.064Z,6.70
2018-06-16T11:53:17.683Z,5.17
2018-06-16T11:55:52.520Z,4.23
2018-06-16T11:58:27.142Z,6.47
2018-06-16T12:01:01.586Z,3.90
2018-06-16T12:03:36.288Z,5.97
2018-06-16T12:06:10.760Z,4.97
2018-06-16T12:08:45.323Z,4.53
2018-06-16T12:11:19.957Z,7.23
2018-06-16T12:13:54.525Z,4.27
2018-06-16T12:16:29.016Z,5.07
2018-06-16T12:19:03.557Z,4.27
2018-06-16T12:21:37.983Z,9.83
2018-06-16T12:24:12.402Z,7.40
2018-06-16T12:26:46.776Z,6.60
2018-06-16T12:29:21.471Z,6.80
2018-06-16T12:31:55.852Z,6.17
2018-06-16T12:34:30.515Z,7.00
2018-06-16T12:37:05.164Z,4.57
2018-06-16T12:39:39.776Z,4.07
2018-06-16T12:42:14.304Z,6.87
2018-06-16T12:44:48.653Z,4.20
2018-06-16T12:47:23.220Z,3.27
2018-06-16T12:49:57.640Z,6.83
2018-06-16T12:52:32.075Z,6.33
2018-06-16T12:55:07.074Z,3.93
2018-06-16T12:57:41.650Z,4.53
2018-06-16T13:00:16.048Z,5.23
2018-06-16T13:02:50.661Z,5.13
2018-06-16T13:05:25.272Z,5.07
2018-06-16T13:07:59.753Z,6.07
2018-06-16T13:10:34.301Z,5.10
2018-06-16T13:13:08.920Z,7.40
2018-06-16T13:15:43.484Z,4.90
2018-06-16T13:18:18.058Z,6.50
2018-06-16T13:20:52.513Z,3.97
2018-06-16T13:23:27.052Z,7.87
2018-06-16T13:26:01.428Z,7.87
2018-06-16T13:28:35.796Z,7.47
2018-06-16T13:31:10.311Z,8.50
2018-06-16T13:33:44.912Z,9.23
2018-06-16T13:36:19.520Z,13.67
2018-06-16T13:38:54.028Z,8.77
2018-06-16T13:41:28.560Z,10.17
2018-06-16T13:44:03.029Z,11.37
2018-06-16T13:46:37.480Z,8.80
2018-06-16T13:49:11.933Z,10.87
2018-06-16T13:51:48.097Z,10.90
2018-06-16T13:54:22.719Z,14.10
2018-06-16T13:56:57.066Z,9.57
2018-06-16T13:59:31.820Z,12.23
2018-06-16T14:02:06.628Z,11.90
2018-06-16T14:04:41.153Z,16.50
2018-06-16T14:07:17.123Z,11.87
2018-06-16T14:09:52.789Z,10.27
2018-06-16T14:12:28.845Z,14.63
2018-06-16T14:15:04.187Z,10.77
2018-06-16T14:17:39.376Z,8.07
2018-06-16T14:20:14.152Z,10.57
2018-06-16T14:22:48.652Z,11.00
2018-06-16T14:25:23.268Z,8.40
2018-06-16T14:27:57.833Z,6.80
2018-06-16T14:30:32.333Z,8.10
2018-06-16T14:33:06.934Z,10.23
2018-06-16T14:35:41.781Z,5.80
2018-06-16T14:38:16.424Z,6.73
2018-06-16T14:40:50.961Z,8.47
2018-06-16T14:43:25.528Z,4.73
2018-06-16T14:45:59.991Z,6.83
2018-06-16T14:48:34.636Z,8.03
2018-06-16T14:51:09.133Z,6.50
2018-06-16T14:53:43.684Z,6.43
2018-06-16T14:56:18.466Z,7.43
2018-06-16T14:58:53.400Z,9.07
2018-06-16T15:01:28.018Z,7.20
2018-06-16T15:04:02.429Z,4.67
2018-06-16T15:06:36.884Z,5.27
2018-06-16T15:09:12.201Z,5.47
2018-06-16T15:11:46.956Z,7.93
2018-06-16T15:14:21.427Z,6.63
2018-06-16T15:16:55.937Z,6.47
2018-06-16T15:19:30.278Z,6.73
2018-06-16T15:22:04.637Z,6.30
2018-06-16T15:24:39.039Z,7.27
2018-06-16T15:27:13.509Z,7.47
2018-06-16T15:29:47.956Z,4.57
2018-06-16T15:32:22.436Z,6.50
2018-06-16T15:34:56.996Z,5.60
2018-06-16T15:37:31.632Z,7.53
2018-06-16T15:40:06.131Z,6.77
2018-06-16T15:42:40.651Z,6.13
2018-06-16T15:45:15.340Z,4.33
2018-06-16T15:47:50.272Z,6.47
2018-06-16T15:50:24.763Z,6.30
2018-06-16T15:52:59.265Z,6.67
2018-06-16T15:55:34.336Z,3.63
2018-06-16T15:58:08.773Z,7.27
2018-06-16T16:00:43.508Z,5.40
2018-06-16T16:03:18.004Z,6.17
2018-06-16T16:05:52.577Z,12.50
2018-06-16T16:08:26.984Z,28.83
2018-06-16T16:11:01.727Z,12.07
2018-06-16T16:13:36.335Z,4.93
2018-06-16T16:16:10.956Z,3.63
2018-06-16T16:18:45.444Z,5.90
2018-06-16T16:21:19.883Z,11.73
2018-06-16T16:23:54.514Z,5.53
2018-06-16T16:26:29.003Z,6.43
2018-06-16T16:29:03.815Z,6.33
2018-06-16T16:31:38.418Z,7.17
2018-06-16T16:34:12.969Z,8.30
2018-06-16T16:36:47.504Z,6.97
2018-06-16T16:39:21.878Z,8.07
2018-06-16T16:41:56.289Z,13.60
2018-06-16T16:44:30.905Z,14.10
2018-06-16T16:47:05.365Z,9.50
2018-06-16T16:49:39.887Z,19.60
2018-06-16T16:52:14.550Z,16.23
2018-06-16T16:54:49.192Z,12.73
2018-06-16T16:57:24.084Z,16.47
2018-06-16T16:59:58.592Z,13.13
2018-06-16T17:02:32.937Z,12.50
2018-06-16T17:05:07.379Z,19.00
2018-06-16T17:07:41.948Z,19.53
2018-06-16T17:10:16.447Z,12.80
2018-06-16T17:12:51.069Z,16.00
2018-06-16T17:15:25.720Z,18.73
2018-06-16T17:18:00.277Z,18.90
2018-06-16T17:20:39.145Z,16.53
2018-06-16T17:23:13.872Z,13.57
2018-06-16T17:28:48.010Z,16.47
2018-06-16T17:31:22.477Z,16.80
2018-06-16T17:33:56.869Z,14.43
2018-06-16T17:36:31.333Z,13.13
2018-06-16T17:39:08.096Z,14.43
2018-06-16T17:41:42.831Z,12.30
2018-06-16T17:44:17.411Z,14.00
2018-06-16T17:46:51.861Z,12.80
2018-06-16T17:49:26.194Z,16.60
2018-06-16T17:52:00.728Z,13.27
2018-06-16T17:54:35.144Z,11.23
2018-06-16T17:57:09.859Z,11.70
2018-06-16T17:59:44.497Z,16.63
2018-06-16T18:02:18.992Z,12.23
2018-06-16T18:04:53.384Z,12.93
2018-06-16T18:07:27.945Z,12.70
2018-06-16T18:10:02.361Z,12.87
2018-06-16T18:12:36.906Z,12.90
2018-06-16T18:15:11.405Z,10.27
2018-06-16T18:17:46.068Z,12.87
2018-06-16T18:20:20.324Z,13.73
2018-06-16T18:22:54.854Z,13.47
2018-06-16T18:25:29.482Z,9.70
2018-06-16T18:28:04.197Z,10.90
2018-06-16T18:30:38.605Z,12.93
2018-06-16T18:33:13.156Z,13.60
2018-06-16T18:35:47.980Z,17.33
2018-06-16T18:38:22.741Z,17.37
2018-06-16T18:40:57.155Z,15.67
2018-06-16T18:43:31.569Z,18.87
2018-06-16T18:46:06.208Z,20.23
2018-06-16T18:48:40.575Z,21.87
2018-06-16T18:51:15.403Z,22.57
2018-06-16T18:53:50.057Z,28.10
2018-06-16T18:56:24.441Z,22.23
2018-06-16T18:58:59.122Z,22.33
2018-06-16T19:01:33.596Z,18.53
2018-06-16T19:04:08.301Z,20.97
2018-06-16T19:06:42.733Z,23.23
2018-06-16T19:09:17.201Z,24.23
2018-06-16T19:11:51.689Z,24.40
2018-06-16T19:14:26.265Z,27.47
2018-06-16T19:17:00.896Z,25.07
2018-06-16T19:19:35.368Z,29.20
2018-06-16T19:22:09.820Z,23.27
2018-06-16T19:24:44.191Z,27.23
2018-06-16T19:27:18.653Z,24.07
2018-06-16T19:29:55.976Z,20.73
2018-06-16T19:32:30.493Z,23.73
2018-06-16T19:35:05.208Z,19.03
2018-06-16T19:37:39.949Z,23.53
2018-06-16T19:40:14.617Z,21.67
2018-06-16T19:42:49.000Z,27.33
2018-06-16T19:45:23.516Z,22.73
2018-06-16T19:47:58.116Z,21.90
2018-06-16T19:50:32.744Z,19.83
2018-06-16T19:53:07.289Z,23.90
2018-06-16T19:55:41.900Z,21.33
2018-06-16T19:58:16.432Z,24.23
2018-06-16T20:00:50.896Z,26.57
2018-06-16T20:03:25.528Z,40.27
2018-06-16T20:06:00.050Z,42.10
2018-06-16T20:08:34.484Z,29.03
2018-06-16T20:11:08.888Z,32.43
2018-06-16T20:13:43.407Z,32.90
2018-06-16T20:16:17.822Z,34.67
2018-06-16T20:18:52.322Z,32.53
2018-06-16T20:21:26.809Z,41.37
2018-06-16T20:24:01.278Z,41.90
2018-06-16T20:26:35.793Z,47.97
2018-06-16T20:29:10.404Z,48.50
2018-06-16T20:31:44.908Z,57.23
2018-06-16T20:34:19.275Z,51.90
2018-06-16T20:36:53.736Z,42.93
2018-06-16T20:39:28.621Z,56.03
2018-06-16T20:42:03.053Z,39.57
2018-06-16T20:44:37.544Z,40.77
2018-06-16T20:47:11.933Z,43.43
2018-06-16T20:49:46.581Z,40.90
2018-06-16T20:52:20.917Z,43.33
2018-06-16T20:54:55.541Z,39.50
2018-06-16T20:57:30.121Z,43.50
2018-06-16T21:00:04.928Z,40.87
2018-06-16T21:02:39.300Z,36.63
2018-06-16T21:05:13.741Z,40.47
2018-06-16T21:07:48.164Z,40.90
2018-06-16T21:10:22.612Z,39.37
2018-06-16T21:12:57.192Z,38.33
2018-06-16T21:15:32.084Z,38.63
2018-06-16T21:18:06.764Z,38.27
2018-06-16T21:20:41.332Z,42.30
2018-06-16T21:23:15.790Z,44.63
2018-06-16T21:25:50.516Z,38.90
2018-06-16T21:28:24.911Z,39.07
2018-06-16T21:30:59.414Z,46.43
2018-06-16T21:33:33.826Z,47.80
2018-06-16T21:36:08.336Z,58.53
2018-06-16T21:38:42.696Z,53.67
2018-06-16T21:41:17.466Z,50.73
2018-06-16T21:43:51.952Z,46.33
2018-06-16T21:46:26.408Z,49.93
2018-06-16T21:49:01.035Z,46.20
2018-06-16T21:51:35.464Z,47.33
2018-06-16T21:54:09.812Z,53.20
2018-06-16T21:56:44.262Z,53.20
2018-06-16T21:59:18.724Z,55.87
2018-06-16T22:01:53.285Z,51.53
2018-06-16T22:04:27.721Z,48.43
2018-06-16T22:07:02.095Z,47.53
2018-06-16T22:09:36.825Z,48.23
2018-06-16T22:12:11.196Z,47.00
2018-06-16T22:14:45.676Z,55.50
2018-06-16T22:17:20.036Z,51.50
2018-06-16T22:19:55.016Z,59.23
2018-06-16T22:22:29.456Z,50.93
2018-06-16T22:25:03.784Z,57.03
2018-06-16T22:27:38.156Z,57.23
2018-06-16T22:30:13.505Z,60.20
2018-06-16T22:32:47.961Z,57.77
2018-06-16T22:35:22.424Z,65.37
2018-06-16T22:37:57.132Z,66.47
2018-06-16T22:40:31.536Z,69.20
2018-06-16T22:43:06.045Z,65.97
2018-06-16T22:45:40.513Z,73.40
2018-06-16T22:48:15.240Z,66.37
2018-06-16T22:50:49.785Z,67.50
2018-06-16T22:53:24.376Z,67.53
2018-06-16T22:55:58.985Z,69.77
2018-06-16T22:58:33.687Z,66.57
2018-06-16T23:01:08.753Z,72.17
2018-06-16T23:03:43.201Z,81.63
2018-06-16T23:06:17.617Z,78.90
2018-06-16T23:08:52.463Z,81.17
2018-06-16T23:11:27.045Z,74.37
2018-06-16T23:14:01.617Z,76.00
2018-06-16T23:16:36.033Z,82.70
2018-06-16T23:19:10.630Z,87.20
2018-06-16T23:21:45.049Z,74.73
2018-06-16T23:24:19.604Z,71.40
2018-06-16T23:26:54.121Z,70.27
2018-06-16T23:29:28.513Z,64.27
2018-06-16T23:32:03.152Z,65.83
2018-06-16T23:34:37.572Z,63.30
2018-06-16T23:37:12.080Z,67.53
2018-06-16T23:39:47.081Z,53.07
2018-06-16T23:42:21.444Z,61.73
2018-06-16T23:44:56.124Z,60.17
2018-06-16T23:47:30.868Z,51.00
2018-06-16T23:50:05.258Z,59.20
2018-06-16T23:52:39.758Z,60.47
2018-06-16T23:55:14.388Z,53.90
2018-06-16T23:57:49.038Z,63.73
